createdAt,value
2022-11-29T00:00:15.325Z,23.9
2022-11-29T00:02:17.449Z,25.4
2022-11-29T00:04:22.370Z,30
2022-11-29T00:06:24.363Z,25.2
2022-11-29T00:08:26.365Z,23
2022-11-29T00:14:32.356Z,27
2022-11-29T00:16:34.442Z,29.2
2022-11-29T00:18:39.437Z,31.3
2022-11-29T00:20:41.441Z,31.3
2022-11-29T00:25:02.407Z,31.1
2022-11-29T00:26:47.416Z,30
2022-11-29T00:28:49.376Z,31.2
2022-11-29T00:30:51.384Z,30.2
2022-11-29T00:32:56.407Z,35.8
2022-11-29T00:34:59.582Z,32.3
2022-11-29T00:37:00.410Z,31.4
2022-11-29T00:38:02.927Z,37.8
2022-11-29T00:40:04.899Z,33.2
2022-11-29T00:42:06.887Z,33.8
2022-11-29T00:44:08.858Z,33
2022-11-29T00:46:13.993Z,33.5
2022-11-29T00:50:17.904Z,30.5
2022-11-29T00:52:19.889Z,30.8
2022-11-29T00:54:21.860Z,32.2
2022-11-29T00:56:23.844Z,30.9
2022-11-29T00:58:25.839Z,31
2022-11-29T01:00:30.888Z,28.7
2022-11-29T01:02:32.948Z,30.4
2022-11-29T01:10:40.845Z,34
2022-11-29T01:12:42.809Z,32.6
2022-11-29T01:14:47.880Z,34.3
2022-11-29T01:18:51.861Z,32.9
2022-11-29T01:22:55.859Z,31.4
2022-11-29T01:26:59.805Z,34.8
2022-11-29T01:29:04.848Z,33.5
2022-11-29T01:31:06.897Z,34.3
2022-11-29T01:33:08.855Z,29.3
2022-11-29T01:34:11.341Z,33.8
2022-11-29T01:36:13.351Z,32.4
2022-11-29T01:38:15.335Z,28.2
2022-11-29T01:42:22.379Z,30.6
2022-11-29T01:44:24.411Z,29.8
2022-11-29T01:46:26.456Z,33.1
2022-11-29T01:48:28.351Z,30.5
2022-11-29T01:52:32.319Z,32.7
2022-11-29T01:54:34.299Z,33.5
2022-11-29T01:58:41.357Z,32
2022-11-29T02:08:51.243Z,34.7
2022-11-29T02:17:02.259Z,32.7
2022-11-29T02:19:04.236Z,33.6
2022-11-29T02:21:06.253Z,31.6
2022-11-29T02:25:13.275Z,37.4
2022-11-29T02:31:34.074Z,33.6
2022-11-29T02:33:36.029Z,30.6
2022-11-29T02:35:38.008Z,35.5
2022-11-29T02:37:43.097Z,35
2022-11-29T02:39:45.074Z,35.8
2022-11-29T02:41:47.070Z,31
2022-11-29T02:43:49.055Z,31.8
2022-11-29T02:45:51.090Z,32.2
2022-11-29T02:47:53.022Z,35.4
2022-11-29T02:49:55.021Z,36.1
2022-11-29T02:52:00.074Z,37.9
2022-11-29T02:54:02.061Z,39.5
2022-11-29T02:56:04.054Z,32.5
2022-11-29T02:58:06.019Z,35
2022-11-29T03:00:07.999Z,31.7
2022-11-29T03:04:12.014Z,35.6
2022-11-29T03:10:21.032Z,35.1
2022-11-29T03:12:23.034Z,33.4
2022-11-29T03:14:25.004Z,36
2022-11-29T03:16:27.008Z,30.8
2022-11-29T03:18:29.044Z,33.2
2022-11-29T03:20:34.052Z,36.8
2022-11-29T03:22:36.019Z,38.3
2022-11-29T03:24:38.026Z,35.2
2022-11-29T03:25:40.574Z,32.2
2022-11-29T03:27:42.574Z,35.8
2022-11-29T03:29:44.548Z,32.4
2022-11-29T03:31:46.522Z,31
2022-11-29T03:33:51.569Z,29.5
2022-11-29T03:35:53.559Z,31.4
2022-11-29T03:37:55.535Z,27.5
2022-11-29T03:41:59.556Z,29.3
2022-11-29T03:44:01.551Z,29.6
2022-11-29T03:46:03.574Z,32.3
2022-11-29T03:50:10.547Z,31.7
2022-11-29T03:53:10.987Z,33.1
2022-11-29T03:54:14.536Z,34.3
2022-11-29T03:56:16.520Z,34.8
2022-11-29T04:00:20.517Z,30.3
2022-11-29T04:02:25.550Z,34.5
2022-11-29T04:04:27.543Z,32.4
2022-11-29T04:06:29.524Z,32.1
2022-11-29T04:08:31.516Z,31.5
2022-11-29T04:10:33.481Z,29.8
2022-11-29T04:12:35.494Z,32.5
2022-11-29T04:14:37.479Z,31.8
2022-11-29T04:16:42.508Z,34.1
2022-11-29T04:18:44.491Z,32.3
2022-11-29T04:20:48.380Z,35.8
2022-11-29T04:21:49.014Z,35.5
2022-11-29T04:23:50.993Z,37.3
2022-11-29T04:25:52.975Z,35
2022-11-29T04:27:54.990Z,37.1
2022-11-29T04:30:00.116Z,37.7
2022-11-29T04:32:02.020Z,39.8
2022-11-29T04:34:03.998Z,42
2022-11-29T04:36:06.006Z,37.3
2022-11-29T04:38:07.985Z,33.5
2022-11-29T04:40:09.994Z,35.3
2022-11-29T04:42:11.964Z,35
2022-11-29T04:44:17.000Z,40.2
2022-11-29T04:46:19.076Z,34.8
2022-11-29T04:48:21.004Z,39.2
2022-11-29T04:50:23.001Z,34
2022-11-29T05:06:41.945Z,37.1
2022-11-29T05:08:43.946Z,39.5
2022-11-29T05:10:45.918Z,38.2
2022-11-29T05:12:50.985Z,38.5
2022-11-29T05:14:52.986Z,35.1
2022-11-29T05:16:55.098Z,37.6
2022-11-29T05:17:57.616Z,43.6
2022-11-29T05:19:59.598Z,45.2
2022-11-29T05:22:01.575Z,45.5
2022-11-29T05:24:03.555Z,46.4
2022-11-29T05:26:08.620Z,42.1
2022-11-29T05:28:10.661Z,31.4
2022-11-29T05:30:12.581Z,33.6
2022-11-29T05:32:14.575Z,33
2022-11-29T05:34:16.559Z,36.1
2022-11-29T05:36:18.567Z,34.6
2022-11-29T05:38:20.540Z,29.9
2022-11-29T05:40:27.106Z,30.7
2022-11-29T05:44:31.115Z,27.3
2022-11-29T05:46:33.102Z,27.4
2022-11-29T05:48:35.112Z,27.4
2022-11-29T05:50:37.127Z,31
2022-11-29T05:52:39.073Z,28.2
2022-11-29T05:54:44.372Z,35.2
2022-11-29T05:56:46.155Z,33.6
2022-11-29T05:58:48.156Z,29.2
2022-11-29T06:00:50.178Z,31.4
2022-11-29T06:02:52.207Z,31.4
2022-11-29T06:04:54.092Z,33.4
2022-11-29T06:06:56.094Z,29.9
2022-11-29T06:09:01.119Z,26.1
2022-11-29T06:11:03.132Z,30.6
2022-11-29T06:15:28.048Z,24.3
2022-11-29T06:19:32.079Z,22.1
2022-11-29T06:21:37.145Z,19.2
2022-11-29T06:23:39.122Z,18.6
2022-11-29T06:25:41.224Z,15.6
2022-11-29T06:27:43.201Z,19.2
2022-11-29T06:29:45.180Z,17
2022-11-29T06:31:47.241Z,15.4
2022-11-29T06:33:49.149Z,17.4
2022-11-29T06:35:54.207Z,18.5
2022-11-29T06:37:56.279Z,17.8
2022-11-29T06:42:00.368Z,16.6
2022-11-29T06:44:02.377Z,20.8
2022-11-29T06:46:04.356Z,19.8
2022-11-29T06:48:06.338Z,17.2
2022-11-29T06:50:11.366Z,17.1
2022-11-29T06:52:13.408Z,17.8
2022-11-29T06:54:15.396Z,20.7
2022-11-29T06:56:17.375Z,17.2
2022-11-29T06:58:19.365Z,15.5
2022-11-29T07:00:21.332Z,14.9
2022-11-29T07:02:23.366Z,17.8
2022-11-29T07:04:28.367Z,18.2
2022-11-29T07:06:30.383Z,16
2022-11-29T07:08:32.380Z,21
2022-11-29T07:11:36.890Z,18.6
2022-11-29T07:13:38.848Z,14.6
2022-11-29T07:15:40.868Z,13.7
2022-11-29T07:17:45.911Z,18.2
2022-11-29T07:21:49.890Z,16.6
2022-11-29T07:23:51.873Z,21.5
2022-11-29T07:25:53.886Z,16.2
2022-11-29T07:27:55.858Z,18.8
2022-11-29T07:29:57.877Z,16.1
2022-11-29T07:32:02.895Z,17.8
2022-11-29T07:34:04.922Z,15.4
2022-11-29T07:36:06.883Z,19.3
2022-11-29T07:38:08.893Z,16
2022-11-29T07:40:10.986Z,16.8
2022-11-29T07:42:12.973Z,16
2022-11-29T07:44:15.062Z,15.9
2022-11-29T07:48:22.178Z,18.8
2022-11-29T07:50:24.193Z,17.2
2022-11-29T07:52:26.265Z,15.6
2022-11-29T07:54:28.269Z,14.9
2022-11-29T07:56:30.259Z,15.3
2022-11-29T07:58:32.224Z,15.4
2022-11-29T08:00:37.325Z,16.3
2022-11-29T08:02:39.240Z,15.4
2022-11-29T08:04:41.248Z,14.6
2022-11-29T08:05:43.858Z,16.5
2022-11-29T08:07:45.803Z,14.9
2022-11-29T08:13:54.960Z,17.3
2022-11-29T08:15:56.989Z,16.1
2022-11-29T08:17:58.929Z,15.8
2022-11-29T08:20:04.012Z,17.9
2022-11-29T08:22:03.105Z,15.1
2022-11-29T08:24:05.089Z,16.5
2022-11-29T08:26:07.038Z,17.7
2022-11-29T08:28:12.190Z,19.4
2022-11-29T08:30:14.175Z,18.9
2022-11-29T08:32:16.271Z,16.8
2022-11-29T08:34:18.330Z,15.6
2022-11-29T08:36:20.315Z,13.2
2022-11-29T08:38:22.301Z,14.5
2022-11-29T08:40:24.479Z,17.4
2022-11-29T08:42:29.360Z,17.5
2022-11-29T08:44:31.355Z,18
2022-11-29T08:46:33.319Z,17
2022-11-29T08:48:35.294Z,17.9
2022-11-29T08:50:37.314Z,16.7
2022-11-29T08:52:39.298Z,16.3
2022-11-29T08:54:41.277Z,12.3
2022-11-29T08:57:38.051Z,15.3
2022-11-29T08:58:48.495Z,13.4
2022-11-29T09:00:50.550Z,13.6
2022-11-29T09:01:53.035Z,16.7
2022-11-29T09:03:55.005Z,15.3
2022-11-29T09:10:04.034Z,14.1
2022-11-29T09:12:06.003Z,12.7
2022-11-29T09:22:16.049Z,15.2
2022-11-29T09:24:21.110Z,15
2022-11-29T09:26:23.086Z,14.3
2022-11-29T09:28:25.087Z,15.5
2022-11-29T09:30:27.050Z,11.5
2022-11-29T09:32:29.034Z,13.4
2022-11-29T09:34:31.026Z,13.6
2022-11-29T09:36:33.078Z,13.3
2022-11-29T09:38:38.040Z,14.4
2022-11-29T09:40:40.020Z,15.2
2022-11-29T09:42:42.014Z,12.5
2022-11-29T09:44:44.458Z,13.4
2022-11-29T09:46:45.987Z,15.2
2022-11-29T09:48:47.975Z,17
2022-11-29T09:50:49.978Z,13.9
2022-11-29T09:52:55.009Z,15.4
2022-11-29T09:54:57.005Z,15.7
2022-11-29T09:56:58.993Z,15.2
2022-11-29T09:59:21.871Z,15
2022-11-29T10:01:23.950Z,15
2022-11-29T10:03:25.836Z,16.2
2022-11-29T10:05:31.002Z,16.5
2022-11-29T10:07:33.040Z,14.3
2022-11-29T10:09:34.965Z,14.9
2022-11-29T10:11:36.963Z,16.3
2022-11-29T10:13:38.942Z,15.1
2022-11-29T10:15:40.915Z,15.1
2022-11-29T10:17:42.924Z,15.2
2022-11-29T10:19:47.985Z,16.5
2022-11-29T10:21:49.964Z,14.5
2022-11-29T10:29:57.929Z,13.5
2022-11-29T10:34:04.991Z,16.6
2022-11-29T10:36:06.949Z,15.5
2022-11-29T10:46:16.972Z,18.1
2022-11-29T10:48:21.962Z,17.2
2022-11-29T10:50:23.965Z,16.9
2022-11-29T10:52:25.943Z,15.6
2022-11-29T10:53:28.483Z,15.9
2022-11-29T10:55:30.456Z,16.8
2022-11-29T10:57:32.446Z,16.9
2022-11-29T10:59:34.444Z,15.9
2022-11-29T11:01:39.571Z,20.2
2022-11-29T11:03:41.518Z,18.3
2022-11-29T11:05:43.548Z,18
2022-11-29T11:07:45.515Z,19
2022-11-29T11:09:47.485Z,18.7
2022-11-29T11:13:51.482Z,18.5
2022-11-29T11:15:56.521Z,19.3
2022-11-29T11:17:58.509Z,19.5
2022-11-29T11:20:00.523Z,18.9
2022-11-29T11:22:02.528Z,20.6
2022-11-29T11:24:04.532Z,19.1
2022-11-29T11:26:06.509Z,21.1
2022-11-29T11:28:08.519Z,18.7
2022-11-29T11:30:15.222Z,22.5
2022-11-29T11:32:17.037Z,19.8
2022-11-29T11:34:19.044Z,20.4
2022-11-29T11:36:21.049Z,21.4
2022-11-29T11:38:23.044Z,18.2
2022-11-29T11:40:25.092Z,17.8
2022-11-29T11:42:27.019Z,19
2022-11-29T11:44:46.749Z,19.3
2022-11-29T11:46:34.115Z,20.4
2022-11-29T11:48:36.086Z,18.1
2022-11-29T11:49:38.603Z,19.5
2022-11-29T11:57:49.675Z,19.4
2022-11-29T12:01:53.679Z,16.3
2022-11-29T12:03:55.678Z,17.6
2022-11-29T12:05:57.679Z,16.6
2022-11-29T12:08:07.724Z,16.4
2022-11-29T12:10:01.677Z,15.6
2022-11-29T12:12:06.741Z,15.8
2022-11-29T12:14:08.714Z,16.3
2022-11-29T12:16:10.770Z,15.5
2022-11-29T12:18:12.744Z,14.1
2022-11-29T12:20:14.734Z,13.8
2022-11-29T12:22:16.711Z,14.4
2022-11-29T12:24:18.733Z,16.2
2022-11-29T12:26:55.458Z,13
2022-11-29T12:28:25.792Z,15.3
2022-11-29T12:30:27.800Z,15.5
2022-11-29T12:32:29.767Z,14.5
2022-11-29T12:34:31.768Z,14.3
2022-11-29T12:36:33.802Z,14.6
2022-11-29T12:38:35.787Z,16.6
2022-11-29T12:40:40.820Z,15.2
2022-11-29T12:42:42.833Z,16.4
2022-11-29T12:44:45.146Z,14.6
2022-11-29T12:45:47.354Z,14.1
2022-11-29T12:47:52.129Z,15
2022-11-29T12:56:00.449Z,13.1
2022-11-29T12:58:02.445Z,11.8
2022-11-29T13:00:04.483Z,14.9
2022-11-29T13:02:06.521Z,14.2
2022-11-29T13:04:08.466Z,13.3
2022-11-29T13:06:10.459Z,12.5
2022-11-29T13:08:15.572Z,13.2
2022-11-29T13:10:18.571Z,13.5
2022-11-29T13:12:19.600Z,13.7
2022-11-29T13:14:41.659Z,12.1
2022-11-29T13:16:29.214Z,12.7
2022-11-29T13:18:25.620Z,11.9
2022-11-29T13:20:27.602Z,12.1
2022-11-29T13:24:42.765Z,12.3
2022-11-29T13:34:44.903Z,13.1
2022-11-29T13:36:49.770Z,15
2022-11-29T13:40:53.772Z,13.6
2022-11-29T13:43:16.680Z,12
2022-11-29T13:49:25.835Z,12.7
2022-11-29T13:51:27.823Z,12.4
2022-11-29T13:57:53.987Z,8.8
2022-11-29T13:59:35.817Z,11
2022-11-29T14:01:37.899Z,11.2
2022-11-29T14:03:42.886Z,8.4
2022-11-29T14:05:44.876Z,9.8
2022-11-29T14:07:46.920Z,9.3
2022-11-29T14:09:48.902Z,8.9
2022-11-29T14:11:50.917Z,9
2022-11-29T14:13:52.949Z,9.1
2022-11-29T14:15:54.954Z,9
2022-11-29T14:17:59.972Z,10.1
2022-11-29T14:20:02.019Z,10.8
2022-11-29T14:22:04.020Z,10.4
2022-11-29T14:24:05.996Z,8.9
2022-11-29T14:26:08.008Z,10.6
2022-11-29T14:28:10.010Z,9.7
2022-11-29T14:30:12.044Z,9
2022-11-29T14:32:17.113Z,9.8
2022-11-29T14:34:19.116Z,11.5
2022-11-29T14:36:21.132Z,9.7
2022-11-29T14:39:25.634Z,8.6
2022-11-29T14:41:27.656Z,9.2
2022-11-29T14:43:29.665Z,10.2
2022-11-29T14:45:34.729Z,7.9
2022-11-29T14:47:36.719Z,8.3
2022-11-29T14:49:38.744Z,9.3
2022-11-29T14:51:40.749Z,8.1
2022-11-29T14:55:44.786Z,9.4
2022-11-29T14:57:46.789Z,8.4
2022-11-29T14:59:51.865Z,9.7
2022-11-29T15:01:53.997Z,10.4
2022-11-29T15:03:55.897Z,10.3
2022-11-29T15:05:57.889Z,9.8
2022-11-29T15:07:59.903Z,11
2022-11-29T15:10:02.015Z,9.6
2022-11-29T15:12:03.898Z,10.5
2022-11-29T15:14:08.980Z,10.3
2022-11-29T15:16:11.003Z,12.7
2022-11-29T15:18:12.951Z,11.6
2022-11-29T15:20:14.973Z,12.8
2022-11-29T15:22:16.972Z,13.6
2022-11-29T15:24:19.826Z,13.7
2022-11-29T15:26:20.982Z,13.7
2022-11-29T15:28:26.033Z,12.2
2022-11-29T15:30:28.043Z,12.2
2022-11-29T15:32:30.039Z,12.7
2022-11-29T15:33:32.557Z,14.3
2022-11-29T15:35:34.564Z,14.1
2022-11-29T15:39:38.568Z,14
2022-11-29T15:41:43.631Z,15.8
2022-11-29T15:43:45.621Z,15.4
2022-11-29T15:45:47.640Z,14.9
2022-11-29T15:47:49.646Z,16
2022-11-29T15:49:51.654Z,15.4
2022-11-29T15:51:53.622Z,15.1
2022-11-29T15:54:11.334Z,15
2022-11-29T15:56:00.666Z,14.9
2022-11-29T15:58:07.006Z,13.3
2022-11-29T16:00:04.675Z,16.1
2022-11-29T16:02:06.725Z,16.7
2022-11-29T16:04:08.697Z,15.6
2022-11-29T16:06:10.688Z,15.4
2022-11-29T16:08:12.692Z,17.5
2022-11-29T16:10:17.752Z,15
2022-11-29T16:12:19.774Z,19.2
2022-11-29T16:14:21.746Z,19.4
2022-11-29T16:16:23.776Z,18.1
2022-11-29T16:18:25.734Z,16.7
2022-11-29T16:20:27.742Z,18.1
2022-11-29T16:22:29.737Z,18.5
2022-11-29T16:24:34.775Z,14.9
2022-11-29T16:26:36.769Z,16.5
2022-11-29T16:28:38.784Z,18
2022-11-29T16:29:41.302Z,17.5
2022-11-29T16:31:43.348Z,15.7
2022-11-29T16:33:45.322Z,17.2
2022-11-29T16:35:47.303Z,17.7
2022-11-29T16:37:52.340Z,21.2
2022-11-29T16:39:54.372Z,18.1
2022-11-29T16:41:56.359Z,17.3
2022-11-29T16:43:58.354Z,17.7
2022-11-29T16:46:00.390Z,18.3
2022-11-29T16:48:02.345Z,16.9
2022-11-29T16:52:09.399Z,21.7
2022-11-29T16:54:11.424Z,20.3
2022-11-29T16:56:13.430Z,18.9
2022-11-29T17:00:17.408Z,18.7
2022-11-29T17:02:19.462Z,19.5
2022-11-29T17:06:26.455Z,22.4
2022-11-29T17:08:28.466Z,22.4
2022-11-29T17:10:30.452Z,18.8
2022-11-29T17:12:32.440Z,20
2022-11-29T17:18:38.418Z,18.6
2022-11-29T17:20:43.489Z,20.7
2022-11-29T17:22:47.000Z,20.1
2022-11-29T17:24:49.021Z,19.9
2022-11-29T17:27:05.883Z,20.4
2022-11-29T17:29:07.891Z,21.6
2022-11-29T17:31:09.905Z,20.8
2022-11-29T17:33:14.956Z,22
2022-11-29T17:35:16.964Z,20.9
2022-11-29T17:37:18.950Z,23.5
2022-11-29T17:39:20.956Z,22
2022-11-29T17:41:22.943Z,21
2022-11-29T17:43:24.938Z,21.8
2022-11-29T17:45:26.950Z,21.3
2022-11-29T17:47:32.000Z,23.9
2022-11-29T17:49:33.987Z,21.4
2022-11-29T17:51:52.790Z,27
2022-11-29T17:53:37.989Z,23.1
2022-11-29T17:55:39.989Z,23.6
2022-11-29T17:57:41.980Z,25.2
2022-11-29T17:59:44.280Z,27.4
2022-11-29T18:01:49.173Z,25.6
2022-11-29T18:03:51.045Z,27.4
2022-11-29T18:05:53.213Z,27.7
2022-11-29T18:07:55.056Z,26.1
2022-11-29T18:09:57.016Z,27.7
2022-11-29T18:11:58.997Z,28.3
2022-11-29T18:14:00.997Z,26.8
2022-11-29T18:16:06.061Z,26
2022-11-29T18:18:08.089Z,24.9
2022-11-29T18:20:10.039Z,21.5
2022-11-29T18:21:12.545Z,23.1
2022-11-29T18:23:14.558Z,23.6
2022-11-29T18:27:18.536Z,23.3
2022-11-29T18:29:23.582Z,25.5
2022-11-29T18:31:25.586Z,25.6
2022-11-29T18:33:27.559Z,24.5
2022-11-29T18:35:29.545Z,24.2
2022-11-29T18:38:05.087Z,26.5
2022-11-29T18:39:33.519Z,27.1
2022-11-29T18:41:35.523Z,25.9
2022-11-29T18:43:40.575Z,26.5
2022-11-29T18:45:43.400Z,25.7
2022-11-29T18:47:45.352Z,26.1
2022-11-29T18:49:47.361Z,26.2
2022-11-29T18:51:49.355Z,29.1
2022-11-29T18:53:51.378Z,27
2022-11-29T18:55:53.354Z,26.2
2022-11-29T18:57:58.423Z,27.7
2022-11-29T19:00:00.398Z,30
2022-11-29T19:02:02.400Z,28.4
2022-11-29T19:08:08.399Z,27.1
2022-11-29T19:14:17.464Z,27.4
2022-11-29T19:16:19.488Z,26.2
2022-11-29T19:17:21.994Z,29.8
2022-11-29T19:19:23.979Z,29.5
2022-11-29T19:21:25.996Z,32.4
2022-11-29T19:23:27.977Z,32.4
2022-11-29T19:25:33.020Z,31.9
2022-11-29T19:27:35.016Z,32.5
2022-11-29T19:29:39.795Z,27.5
2022-11-29T19:31:39.035Z,32.4
2022-11-29T19:39:50.077Z,29.9
2022-11-29T19:41:52.078Z,28.4
2022-11-29T19:47:58.056Z,28.3
2022-11-29T19:50:02.585Z,26.4
2022-11-29T19:52:02.065Z,25
2022-11-29T19:54:07.107Z,24.9
2022-11-29T19:58:11.109Z,25.1
2022-11-29T20:02:15.329Z,22.2
2022-11-29T20:04:17.155Z,23
2022-11-29T20:06:19.134Z,22.3
2022-11-29T20:08:24.198Z,20.6
2022-11-29T20:10:26.229Z,19.2
2022-11-29T20:12:28.211Z,18.7
2022-11-29T20:21:41.783Z,21
2022-11-29T20:27:47.759Z,19.3
2022-11-29T20:29:49.756Z,21.2
2022-11-29T20:33:53.765Z,22.3
2022-11-29T20:35:58.816Z,21.2
2022-11-29T20:38:00.820Z,21.7
2022-11-29T20:40:02.827Z,20.3
2022-11-29T20:42:04.840Z,21.1
2022-11-29T20:44:06.792Z,21.2
2022-11-29T20:46:08.844Z,22
2022-11-29T20:48:10.755Z,21.1
2022-11-29T20:50:19.431Z,24
2022-11-29T20:52:17.921Z,23.1
2022-11-29T20:54:19.915Z,21.5
2022-11-29T20:56:21.906Z,23.2
2022-11-29T20:58:23.886Z,21.1
2022-11-29T21:00:25.846Z,23.1
2022-11-29T21:02:27.843Z,26.2
2022-11-29T21:04:32.890Z,26.7
2022-11-29T21:06:34.871Z,25.9
2022-11-29T21:08:36.843Z,24.4
2022-11-29T21:10:59.657Z,28.3
2022-11-29T21:13:01.638Z,25.5
2022-11-29T21:15:03.605Z,25.2
2022-11-29T21:17:08.635Z,27.3
2022-11-29T21:19:10.611Z,26.3
2022-11-29T21:21:12.599Z,26.1
2022-11-29T21:23:14.611Z,25.6
2022-11-29T21:25:16.570Z,27.6
2022-11-29T21:27:18.556Z,25.4
2022-11-29T21:29:20.536Z,25.1
2022-11-29T21:33:27.583Z,27.4
2022-11-29T21:39:33.553Z,26.8
2022-11-29T21:41:35.521Z,25.5
2022-11-29T21:44:05.101Z,27
2022-11-29T21:45:42.563Z,26.2
2022-11-29T21:47:44.537Z,24.9
2022-11-29T21:51:48.523Z,26.2
2022-11-29T21:53:50.519Z,27.4
2022-11-29T22:02:01.638Z,28.2
2022-11-29T22:04:03.505Z,25.8
2022-11-29T22:05:06.115Z,27.6
2022-11-29T22:07:08.131Z,28.5
2022-11-29T22:09:10.095Z,26.5
2022-11-29T22:11:12.081Z,29.8
2022-11-29T22:13:17.114Z,29.5
2022-11-29T22:15:22.943Z,28
2022-11-29T22:17:21.096Z,28.7
2022-11-29T22:19:23.113Z,26.3
2022-11-29T22:23:27.052Z,27.5
2022-11-29T22:25:29.061Z,28
2022-11-29T22:27:34.062Z,30.2
2022-11-29T22:31:38.098Z,27.7
2022-11-29T22:35:42.016Z,27.6
2022-11-29T22:37:43.997Z,27
2022-11-29T22:41:54.755Z,25.8
2022-11-29T22:43:53.045Z,29.5
2022-11-29T22:45:55.019Z,29.9
2022-11-29T22:47:57.014Z,24.9
2022-11-29T22:49:58.997Z,27.2
2022-11-29T22:52:00.988Z,28.4
2022-11-29T22:54:02.969Z,27.2
2022-11-29T22:56:08.105Z,29.1
2022-11-29T22:58:09.998Z,26.7
2022-11-29T23:00:12.052Z,27.8
2022-11-29T23:01:14.518Z,27.9
2022-11-29T23:03:16.460Z,27.6
2022-11-29T23:05:18.452Z,27.5
2022-11-29T23:07:20.482Z,29.5
2022-11-29T23:09:25.471Z,28.5
2022-11-29T23:11:27.480Z,29.1
2022-11-29T23:13:31.074Z,28.9
2022-11-29T23:15:33.026Z,32.8
2022-11-29T23:17:35.022Z,26.2
2022-11-29T23:19:37.032Z,29.1
2022-11-29T23:21:38.997Z,28.2
2022-11-29T23:23:44.026Z,28
2022-11-29T23:25:46.000Z,27.6
2022-11-29T23:27:47.983Z,28.3
2022-11-29T23:29:49.952Z,29.7
2022-11-29T23:31:52.101Z,28.6
2022-11-29T23:33:54.115Z,28.9
2022-11-29T23:35:56.049Z,28.5
2022-11-29T23:38:01.085Z,30
2022-11-29T23:40:03.091Z,29.1
2022-11-29T23:44:07.038Z,28.1
2022-11-29T23:46:09.041Z,30.9
2022-11-29T23:48:10.977Z,29.3
2022-11-29T23:50:12.938Z,28.1
2022-11-29T23:52:17.989Z,29.4
2022-11-29T23:54:19.948Z,29.6
2022-11-29T23:56:21.939Z,30.1
2022-11-29T23:57:24.433Z,30.6
2022-11-29T23:59:26.409Z,30.2
